Skip to Main Content
SEARCH:
Location Air RH Dwp Precip Type Wind Speed Wind Gust Direction Pavement Temperature Date/Time
Hatem Bridge US 40 E/B 74 68 63 None 8 mph 12 mph N 82 - 82 6/25/2017 9:39:00 AM
I-270 at I-370 73 65 60 None Calm Calm NW 84 - 88 6/25/2017 9:35:00 AM
I-270 at MD-109 75 69 64 None Calm 5 mph NW 86 - 87 6/25/2017 9:35:00 AM
I-495 at American Legion Bridge 76 64 63 None Calm 6 mph NW 91 - 92 6/25/2017 9:35:00 AM
I-68 at MD-219 62 82 56 None 9 mph 16 mph W 79 - 83 6/25/2017 9:35:00 AM
I-68 at Savage Mt 65 79 58 None Calm 5 mph S 81 - 83 6/25/2017 9:35:00 AM
I-68 at Sideling Hill 69 85 64 None 4 mph 8 mph S 88 - 91 6/25/2017 9:35:00 AM
I-68 at WV Line 65 73 56 None 6 mph 13 mph W 79 - 84 6/25/2017 9:35:00 AM
I-695 at I-83 75 60 60 None Calm 8 mph N 87 - 90 6/25/2017 9:35:00 AM
I-70 at Fred-Wash Co. - - - No Data Available - - No Data Available -
I-70 at I-695 74 65 62 None 4 mph 8 mph W 77 - 92 6/25/2017 9:35:00 AM
I-70 at I-81 74 62 61 None 6 mph 11 mph W - 6/25/2017 9:35:00 AM
I-70 at MD-27 73 70 63 None Calm 4 mph NE 89 - 91 6/25/2017 9:35:00 AM
I-70 at MD-32 74 63 60 None Calm 7 mph W 85 - 87 6/25/2017 9:35:00 AM
I-83 at MD-137 74 68 63 None Calm Calm NW 87 - 87 6/25/2017 9:35:00 AM
I-95 at I-695 NE 76 54 59 None 5 mph 8 mph N 91 - 96 6/25/2017 9:39:00 AM
I-95 at Patuxent River 77 64 64 None Calm 9 mph SE 87 - 90 6/25/2017 9:35:00 AM
I-95 at Tydings Bridge 76 66 64 None Calm Calm NW 85 - 88 6/25/2017 9:35:00 AM
I-95/495 at I-295 84 46 61 None 4 mph 8 mph NW 83 - 92 6/25/2017 9:35:00 AM
I-97 at MD-100 78 56 61 None Calm 9 mph W 89 - 92 6/25/2017 9:35:00 AM
I-97 at MD-32 77 59 62 None 10 mph 13 mph N 86 - 92 6/25/2017 9:35:00 AM
MD 20 at MD 21 79 56 63 None Calm 6 mph N 101 - 101 6/25/2017 9:35:00 AM
MD 231 at Patuxent River 79 62 65 None 4 mph 10 mph NW 100 - 95 6/25/2017 9:35:00 AM
MD 260 at Cox Rd 79 62 65 None Calm Calm N 99 - 99 6/25/2017 9:35:00 AM
MD-135 at Salt Dome 63 77 56 None 5 mph 15 mph SW 84 - 84 6/25/2017 9:35:00 AM
MD-140 at MD-97 72 69 62 None Calm 8 mph SW 88 - 88 6/25/2017 9:35:00 AM
MD-200 EB at Bonifant Rd 75 62 61 None 5 mph 5 mph N 95 - 98 6/25/2017 9:39:00 AM
MD-200 WB at Muncaster Mill Rd - - - No Data Available - - No Data Available -
MD-213 at Sassafras River 78 68 66 None Calm 4 mph SW 96 - 96 6/25/2017 9:35:00 AM
MD-24 at Rock St Park 71 96 70 None Calm Calm W 81 - 81 6/25/2017 9:35:00 AM
MD-30 at PA Line 71 71 62 None Calm 6 mph NW 89 - 89 6/25/2017 9:35:00 AM
MD-301 at MD-305 77 64 64 None 6 mph 8 mph NW 96 - 99 6/25/2017 9:35:00 AM
MD-33 at Knapps Narrows Drawbridge 78 64 65 None 7 mph 13 mph NW 94 - 94 6/25/2017 9:35:00 AM
MD-344 at MD-224 77 60 63 None Calm 8 mph NE 86 - 86 6/25/2017 9:35:00 AM
MD-4 at Patuxent River 79 69 68 None - - No Data Available 93 - 93 6/25/2017 9:35:00 AM
MD-404 at Choptank River 77 66 65 None Calm 5 mph NW 93 - 95 6/25/2017 9:35:00 AM
MD-43 at MD-150 77 59 62 None 4 mph 7 mph W 88 - 89 6/25/2017 9:35:00 AM
MD-51 at Oldtown Salt Dome 71 73 62 None Calm 6 mph SW 97 - 97 6/25/2017 9:35:00 AM
MD-64 at MD-418 - - - No Data Available - - No Data Available -
US-1 at Baltimore / Harford Co. Line 74 75 65 None Calm 4 mph N 85 - 87 6/25/2017 9:35:00 AM
US-1 at Conowingo Dam 75 72 66 None Calm Calm W 81 - 81 6/25/2017 9:35:00 AM
US-13 at US-113 79 58 64 None 5 mph 8 mph NE 107 - 107 6/25/2017 9:35:00 AM
US-13 at US-50 - - - No Data Available - - No Data Available -
US-15 at MD-140 74 59 59 None Calm Calm SW 86 - 89 6/25/2017 9:35:00 AM
US-301 at MD-5 78 60 64 None Calm 6 mph N 92 - 94 6/25/2017 9:35:00 AM
US-301 at Potomac 84 59 68 None Calm 5 mph N 87 - 92 6/25/2017 9:35:00 AM
US-301 on HWN Bridge 75 66 63 None 6 mph 8 mph NW 84 - 84 6/25/2017 9:39:00 AM
US-340 at MD-180 72 64 60 None 5 mph 8 mph NW 89 - 90 6/25/2017 9:35:00 AM
US-50 at Choptank 79 69 68 None 5 mph 7 mph NW 92 - 92 6/25/2017 9:35:00 AM
US-50 at I-95 - - - No Data Available - - No Data Available -
US-50 at MD-2 76 64 63 None Calm 8 mph W 82 - 91 6/25/2017 9:35:00 AM
US-50 at MD-331 81 62 67 None 5 mph 9 mph N 94 - 94 6/25/2017 9:35:00 AM
US-50 at OC Drawbridge 77 69 66 None 5 mph 8 mph NE 100 - 100 6/25/2017 9:35:00 AM
US-50 at Table Rock Rd 60 89 57 None Calm 8 mph W 81 - 81 6/25/2017 9:35:00 AM
US-50 Kent Narrow Bridge 78 64 66 None 5 mph 8 mph NW 91 - 93 6/25/2017 9:35:00 AM
WPL Pier 31 75 59 60 Rain 11 mph 11 mph N 90 - 90 6/25/2017 9:39:00 AM
Location Air RH Dwp Precip Type Wind Speed Wind Gust Direction Pavement Temperature Date/Time